createdAt,value
2017-11-07T00:01:12.415Z,18.20
2017-11-07T00:03:38.371Z,18.03
2017-11-07T00:06:05.110Z,22.00
2017-11-07T00:08:31.059Z,21.33
2017-11-07T00:10:57.775Z,21.90
2017-11-07T00:13:23.769Z,17.73
2017-11-07T00:15:49.718Z,18.57
2017-11-07T00:18:15.757Z,18.43
2017-11-07T00:20:41.710Z,21.20
2017-11-07T00:23:07.667Z,17.13
2017-11-07T00:25:33.681Z,18.43
2017-11-07T00:27:59.629Z,16.50
2017-11-07T00:30:25.583Z,15.40
2017-11-07T00:32:51.557Z,17.53
2017-11-07T00:35:17.570Z,16.40
2017-11-07T00:37:44.282Z,17.37
2017-11-07T00:40:10.237Z,16.50
2017-11-07T00:42:36.216Z,18.73
2017-11-07T00:45:02.206Z,17.80
2017-11-07T00:47:28.194Z,16.37
2017-11-07T00:49:54.144Z,17.00
2017-11-07T00:52:20.127Z,17.23
2017-11-07T00:54:46.889Z,21.60
2017-11-07T00:57:13.615Z,17.03
2017-11-07T00:59:39.583Z,20.87
2017-11-07T01:02:05.581Z,17.47
2017-11-07T01:04:31.542Z,25.10
2017-11-07T01:06:58.234Z,18.67
2017-11-07T01:09:24.217Z,18.17
2017-11-07T01:11:50.186Z,21.13
2017-11-07T01:14:16.162Z,21.93
2017-11-07T01:16:42.154Z,19.20
2017-11-07T01:19:08.161Z,24.33
2017-11-07T01:21:34.127Z,21.70
2017-11-07T01:24:00.082Z,18.90
2017-11-07T01:26:26.074Z,23.50
2017-11-07T01:28:52.032Z,30.37
2017-11-07T01:31:18.717Z,23.00
2017-11-07T01:33:44.698Z,25.97
2017-11-07T01:36:10.680Z,29.30
2017-11-07T01:38:36.687Z,26.30
2017-11-07T01:41:03.379Z,26.70
2017-11-07T01:43:29.322Z,24.97
2017-11-07T01:45:55.318Z,23.63
2017-11-07T01:48:21.266Z,25.50
2017-11-07T01:50:47.222Z,25.20
2017-11-07T01:53:13.209Z,21.97
2017-11-07T01:55:39.967Z,26.37
2017-11-07T01:58:06.722Z,23.63
2017-11-07T02:00:33.421Z,23.50
2017-11-07T02:02:59.381Z,26.30
2017-11-07T02:05:25.362Z,26.07
2017-11-07T02:07:51.349Z,29.13
2017-11-07T02:10:17.330Z,23.77
2017-11-07T02:12:43.345Z,28.47
2017-11-07T02:15:09.324Z,27.10
2017-11-07T02:17:35.310Z,23.67
2017-11-07T02:20:01.258Z,25.03
2017-11-07T02:22:27.998Z,24.27
2017-11-07T02:24:54.694Z,29.10
2017-11-07T02:27:20.637Z,31.60
2017-11-07T02:29:46.618Z,25.10
2017-11-07T02:32:12.611Z,29.37
2017-11-07T02:34:38.600Z,29.33
2017-11-07T02:37:04.562Z,32.23
2017-11-07T02:39:30.545Z,24.13
2017-11-07T02:41:56.485Z,20.20
2017-11-07T02:44:22.466Z,31.13
2017-11-07T02:46:48.414Z,22.47
2017-11-07T02:49:14.398Z,25.17
2017-11-07T02:51:40.397Z,24.13
2017-11-07T02:54:06.358Z,27.70
2017-11-07T02:56:32.362Z,25.50
2017-11-07T02:58:58.314Z,28.40
2017-11-07T03:01:24.314Z,25.33
2017-11-07T03:03:50.266Z,21.00
2017-11-07T03:06:16.216Z,27.23
2017-11-07T03:08:42.215Z,23.70
2017-11-07T03:11:08.956Z,22.20
2017-11-07T03:13:35.644Z,29.20
2017-11-07T03:16:01.604Z,25.87
2017-11-07T03:18:27.587Z,21.80
2017-11-07T03:20:54.306Z,25.60
2017-11-07T03:23:20.260Z,24.07
2017-11-07T03:25:46.234Z,24.40
2017-11-07T03:28:12.238Z,22.47
2017-11-07T03:30:38.981Z,21.83
2017-11-07T03:33:04.965Z,23.67
2017-11-07T03:35:30.917Z,20.47
2017-11-07T03:37:56.896Z,20.07
2017-11-07T03:40:23.605Z,22.40
2017-11-07T03:42:49.584Z,24.10
2017-11-07T03:45:15.566Z,22.33
2017-11-07T03:47:41.574Z,24.60
2017-11-07T03:50:07.559Z,23.23
2017-11-07T03:52:33.582Z,27.37
2017-11-07T03:54:59.540Z,22.10
2017-11-07T03:57:25.532Z,24.80
2017-11-07T03:59:51.494Z,23.50
2017-11-07T04:02:17.491Z,23.60
2017-11-07T04:04:43.464Z,25.73
2017-11-07T04:07:09.474Z,20.87
2017-11-07T04:09:35.434Z,23.40
2017-11-07T04:12:01.402Z,19.47
2017-11-07T04:14:27.387Z,19.10
2017-11-07T04:16:53.334Z,19.87
2017-11-07T04:19:19.277Z,19.50
2017-11-07T04:21:45.265Z,20.00
2017-11-07T04:24:12.018Z,19.13
2017-11-07T04:26:38.783Z,22.10
2017-11-07T04:29:04.734Z,22.00
2017-11-07T04:31:30.693Z,24.57
2017-11-07T04:33:56.673Z,23.30
2017-11-07T04:36:23.370Z,21.40
2017-11-07T04:38:49.353Z,24.80
2017-11-07T04:41:15.336Z,19.50
2017-11-07T04:43:41.368Z,24.63
2017-11-07T04:46:07.330Z,24.63
2017-11-07T04:48:33.277Z,22.27
2017-11-07T04:50:59.326Z,19.50
2017-11-07T04:53:25.265Z,21.90
2017-11-07T04:55:51.226Z,22.63
2017-11-07T04:58:17.954Z,21.70
2017-11-07T05:00:43.945Z,26.67
2017-11-07T05:03:09.930Z,21.57
2017-11-07T05:05:35.913Z,19.57
2017-11-07T05:08:01.873Z,19.97
2017-11-07T05:10:27.862Z,20.03
2017-11-07T05:12:54.602Z,22.97
2017-11-07T05:15:21.298Z,28.70
2017-11-07T05:17:47.290Z,34.43
2017-11-07T05:20:14.006Z,25.77
2017-11-07T05:22:39.984Z,25.43
2017-11-07T05:25:06.715Z,25.90
2017-11-07T05:27:32.694Z,24.57
2017-11-07T05:29:58.645Z,24.37
2017-11-07T05:32:24.670Z,22.87
2017-11-07T05:34:50.621Z,26.47
2017-11-07T05:37:16.601Z,27.23
2017-11-07T05:39:42.547Z,23.50
2017-11-07T05:42:09.276Z,26.47
2017-11-07T05:44:35.282Z,27.70
2017-11-07T05:47:01.249Z,25.03
2017-11-07T05:49:27.223Z,20.47
2017-11-07T05:51:53.913Z,29.33
2017-11-07T05:54:19.857Z,27.17
2017-11-07T05:56:45.855Z,30.13
2017-11-07T05:59:11.841Z,33.67
2017-11-07T06:01:37.851Z,29.07
2017-11-07T06:04:03.840Z,25.80
2017-11-07T06:06:29.805Z,24.93
2017-11-07T06:08:55.814Z,27.73
2017-11-07T06:11:22.502Z,24.53
2017-11-07T06:13:48.457Z,25.27
2017-11-07T06:16:14.436Z,25.00
2017-11-07T06:18:41.190Z,27.00
2017-11-07T06:21:07.953Z,28.33
2017-11-07T06:23:34.698Z,24.47
2017-11-07T06:26:01.394Z,26.17
2017-11-07T06:28:27.422Z,26.80
2017-11-07T06:30:53.434Z,23.50
2017-11-07T06:33:20.134Z,30.83
2017-11-07T06:35:46.134Z,24.10
2017-11-07T06:38:12.104Z,32.60
2017-11-07T06:40:38.109Z,25.80
2017-11-07T06:43:04.094Z,28.03
2017-11-07T06:45:30.054Z,29.73
2017-11-07T06:47:56.786Z,27.53
2017-11-07T06:50:22.805Z,27.30
2017-11-07T06:52:48.773Z,32.23
2017-11-07T06:55:15.494Z,31.90
2017-11-07T06:57:41.511Z,32.93
2017-11-07T07:00:07.502Z,27.00
2017-11-07T07:02:34.254Z,31.60
2017-11-07T07:05:00.215Z,29.43
2017-11-07T07:07:26.191Z,30.23
2017-11-07T07:09:52.189Z,31.70
2017-11-07T07:12:18.151Z,29.90
2017-11-07T07:14:44.157Z,31.50
2017-11-07T07:17:10.874Z,37.13
2017-11-07T07:19:36.869Z,31.73
2017-11-07T07:22:02.820Z,35.63
2017-11-07T07:24:28.809Z,29.93
2017-11-07T07:26:54.769Z,28.77
2017-11-07T07:29:20.762Z,35.83
2017-11-07T07:31:46.791Z,31.77
2017-11-07T07:34:12.780Z,38.90
2017-11-07T07:36:38.766Z,33.97
2017-11-07T07:39:04.741Z,30.23
2017-11-07T07:41:30.692Z,31.17
2017-11-07T07:43:56.685Z,32.27
2017-11-07T07:46:22.635Z,32.30
2017-11-07T07:48:49.350Z,34.50
2017-11-07T07:51:15.349Z,32.33
2017-11-07T07:53:41.296Z,30.00
2017-11-07T07:56:07.270Z,34.60
2017-11-07T07:58:33.251Z,35.90
2017-11-07T08:00:59.202Z,34.10
2017-11-07T08:03:25.202Z,32.60
2017-11-07T08:05:51.888Z,38.13
2017-11-07T08:08:17.824Z,34.93
2017-11-07T08:10:43.817Z,29.50
2017-11-07T08:13:10.525Z,41.20
2017-11-07T08:15:36.511Z,30.47
2017-11-07T08:18:03.185Z,28.00
2017-11-07T08:20:29.141Z,31.53
2017-11-07T08:22:55.133Z,29.30
2017-11-07T08:25:21.991Z,32.20
2017-11-07T08:27:48.693Z,28.67
2017-11-07T08:30:14.655Z,30.27
2017-11-07T08:32:40.738Z,28.33
2017-11-07T08:35:06.688Z,29.37
2017-11-07T08:37:32.685Z,29.67
2017-11-07T08:39:59.526Z,28.13
2017-11-07T08:42:25.514Z,31.73
2017-11-07T08:44:51.493Z,30.23
2017-11-07T08:47:17.473Z,32.27
2017-11-07T08:49:43.472Z,30.43
2017-11-07T08:52:09.443Z,32.83
2017-11-07T08:54:36.158Z,72.77
2017-11-07T08:57:02.117Z,57.03
2017-11-07T08:59:28.930Z,50.60
2017-11-07T09:01:54.920Z,38.40
2017-11-07T09:04:21.618Z,33.00
2017-11-07T09:06:47.566Z,37.87
2017-11-07T09:09:13.568Z,35.33
2017-11-07T09:11:39.524Z,33.50
2017-11-07T09:14:05.493Z,34.63
2017-11-07T09:16:31.425Z,43.43
2017-11-07T09:18:57.380Z,41.67
2017-11-07T09:21:24.110Z,37.70
2017-11-07T09:23:50.053Z,36.73
2017-11-07T09:26:15.993Z,40.37
2017-11-07T09:28:42.033Z,37.10
2017-11-07T09:31:08.736Z,35.40
2017-11-07T09:33:34.690Z,42.07
2017-11-07T09:36:00.664Z,39.53
2017-11-07T09:38:27.344Z,37.17
2017-11-07T09:40:53.320Z,33.73
2017-11-07T09:43:19.265Z,36.10
2017-11-07T09:45:45.265Z,37.70
2017-11-07T09:48:11.272Z,38.00
2017-11-07T09:50:37.263Z,38.23
2017-11-07T09:53:03.212Z,35.23
2017-11-07T09:55:29.193Z,35.70
2017-11-07T09:57:55.178Z,32.50
2017-11-07T10:00:21.185Z,36.70
2017-11-07T10:02:47.139Z,35.70
2017-11-07T10:05:13.161Z,32.20
2017-11-07T10:07:39.148Z,34.30
2017-11-07T10:10:05.862Z,32.77
2017-11-07T10:12:31.850Z,31.80
2017-11-07T10:14:57.817Z,35.67
2017-11-07T10:17:23.766Z,34.20
2017-11-07T10:19:49.750Z,35.93
2017-11-07T10:22:16.428Z,36.70
2017-11-07T10:24:42.534Z,34.10
2017-11-07T10:27:09.271Z,46.73
2017-11-07T10:29:35.209Z,30.93
2017-11-07T10:32:01.182Z,33.30
2017-11-07T10:34:27.208Z,38.53
2017-11-07T10:36:53.153Z,30.47
2017-11-07T10:39:19.092Z,32.93
2017-11-07T10:41:45.085Z,30.30
2017-11-07T10:44:11.064Z,30.57
2017-11-07T10:46:37.009Z,37.67
2017-11-07T10:49:03.000Z,34.53
2017-11-07T10:51:29.685Z,38.13
2017-11-07T10:53:55.666Z,33.57
2017-11-07T10:56:21.646Z,39.57
2017-11-07T10:58:47.606Z,30.83
2017-11-07T11:01:13.632Z,36.67
2017-11-07T11:03:39.637Z,40.03
2017-11-07T11:06:06.350Z,41.93
2017-11-07T11:08:32.297Z,42.90
2017-11-07T11:10:58.370Z,49.87
2017-11-07T11:13:25.057Z,40.67
2017-11-07T11:15:50.996Z,37.70
2017-11-07T11:18:16.993Z,40.50
2017-11-07T11:20:43.738Z,36.57
2017-11-07T11:23:10.483Z,36.33
2017-11-07T11:25:36.420Z,32.40
2017-11-07T11:28:03.108Z,33.00
2017-11-07T11:30:29.068Z,33.93
2017-11-07T11:32:55.064Z,29.40
2017-11-07T11:35:21.753Z,27.60
2017-11-07T11:37:47.694Z,34.80
2017-11-07T11:40:13.698Z,32.93
2017-11-07T11:42:39.670Z,30.50
2017-11-07T11:45:05.681Z,25.87
2017-11-07T11:47:31.621Z,27.50
2017-11-07T11:49:57.561Z,28.93
2017-11-07T11:52:23.548Z,24.77
2017-11-07T11:54:50.226Z,57.10
2017-11-07T11:57:16.213Z,37.47
2017-11-07T11:59:42.191Z,29.80
2017-11-07T12:02:08.259Z,26.00
2017-11-07T12:04:34.229Z,22.93
2017-11-07T12:07:00.178Z,24.63
2017-11-07T12:09:26.146Z,34.37
2017-11-07T12:11:52.129Z,50.03
2017-11-07T12:14:18.102Z,42.83
2017-11-07T12:16:44.836Z,34.87
2017-11-07T12:19:12.286Z,29.23
2017-11-07T12:21:38.282Z,29.53
2017-11-07T12:24:04.290Z,29.67
2017-11-07T12:26:31.004Z,29.73
2017-11-07T12:28:56.932Z,26.40
2017-11-07T12:31:22.873Z,24.70
2017-11-07T12:33:48.853Z,24.87
2017-11-07T12:36:15.561Z,22.70
2017-11-07T12:38:41.520Z,25.70
2017-11-07T12:41:07.525Z,25.20
2017-11-07T12:43:33.505Z,26.33
2017-11-07T12:46:00.181Z,25.17
2017-11-07T12:48:26.120Z,21.90
2017-11-07T12:51:04.648Z,24.17
2017-11-07T12:53:30.585Z,24.07
2017-11-07T12:55:56.562Z,24.60
2017-11-07T12:58:22.526Z,23.67
2017-11-07T13:00:49.290Z,25.73
2017-11-07T13:03:15.982Z,24.57
2017-11-07T13:05:41.934Z,23.53
2017-11-07T13:08:07.966Z,26.00
2017-11-07T13:10:33.926Z,20.87
2017-11-07T13:12:59.881Z,24.73
2017-11-07T13:15:26.606Z,33.23
2017-11-07T13:17:52.557Z,27.67
2017-11-07T13:20:18.544Z,24.67
2017-11-07T13:22:44.533Z,21.60
2017-11-07T13:25:10.561Z,22.57
2017-11-07T13:27:36.509Z,20.70
2017-11-07T13:30:02.515Z,28.97
2017-11-07T13:32:28.506Z,19.97
2017-11-07T13:34:54.448Z,24.33
2017-11-07T13:37:20.442Z,25.47
2017-11-07T13:39:46.411Z,20.60
2017-11-07T13:42:12.359Z,22.30
2017-11-07T13:44:38.402Z,23.37
2017-11-07T13:47:04.353Z,19.20
2017-11-07T13:49:30.337Z,25.60
2017-11-07T13:51:57.021Z,23.50
2017-11-07T13:54:22.960Z,21.43
2017-11-07T13:56:48.942Z,23.17
2017-11-07T13:59:14.905Z,22.20
2017-11-07T14:01:41.672Z,23.53
2017-11-07T14:04:07.638Z,24.87
2017-11-07T14:06:33.618Z,21.90
2017-11-07T14:09:00.313Z,21.27
2017-11-07T14:11:26.298Z,22.10
2017-11-07T14:13:52.249Z,22.60
2017-11-07T14:16:18.986Z,27.27
2017-11-07T14:18:44.942Z,21.60
2017-11-07T14:21:11.641Z,19.57
2017-11-07T14:23:37.623Z,20.43
2017-11-07T14:26:04.322Z,23.10
2017-11-07T14:28:30.301Z,21.57
2017-11-07T14:30:56.235Z,26.33
2017-11-07T14:33:22.208Z,21.40
2017-11-07T14:35:48.154Z,21.77
2017-11-07T14:38:14.157Z,27.40
2017-11-07T14:40:40.849Z,21.80
2017-11-07T14:43:06.833Z,22.40
2017-11-07T14:45:32.809Z,19.57
2017-11-07T14:47:58.758Z,21.20
2017-11-07T14:50:24.741Z,22.17
2017-11-07T14:52:50.738Z,19.03
2017-11-07T14:55:16.713Z,22.23
2017-11-07T14:57:43.430Z,22.57
2017-11-07T15:00:09.476Z,21.50
2017-11-07T15:02:35.431Z,18.63
2017-11-07T15:05:01.417Z,22.73
2017-11-07T15:07:27.367Z,18.93
2017-11-07T15:09:53.368Z,20.53
2017-11-07T15:12:20.093Z,22.37
2017-11-07T15:14:46.037Z,18.63
2017-11-07T15:17:12.023Z,19.67
2017-11-07T15:19:38.005Z,17.70
2017-11-07T15:22:03.949Z,19.67
2017-11-07T15:24:30.665Z,18.83
2017-11-07T15:26:56.645Z,18.30
2017-11-07T15:29:23.352Z,16.40
2017-11-07T15:31:49.299Z,22.20
2017-11-07T15:34:15.268Z,23.80
2017-11-07T15:36:42.014Z,23.70
2017-11-07T15:39:08.127Z,21.87
2017-11-07T15:41:34.069Z,20.50
2017-11-07T15:44:00.037Z,25.63
2017-11-07T15:46:26.768Z,26.43
2017-11-07T15:48:52.718Z,18.17
2017-11-07T15:51:19.440Z,24.17
2017-11-07T15:53:45.408Z,27.00
2017-11-07T15:56:12.130Z,21.53
2017-11-07T15:58:39.070Z,25.63
2017-11-07T16:01:05.073Z,20.27
2017-11-07T16:03:31.016Z,27.53
2017-11-07T16:05:56.973Z,23.13
2017-11-07T16:08:22.979Z,18.53
2017-11-07T16:10:49.661Z,17.73
2017-11-07T16:13:15.604Z,19.30
2017-11-07T16:15:41.610Z,17.63
2017-11-07T16:18:07.609Z,19.07
2017-11-07T16:20:33.652Z,18.30
2017-11-07T16:23:00.342Z,17.97
2017-11-07T16:25:26.325Z,18.53
2017-11-07T16:27:52.298Z,21.80
2017-11-07T16:30:19.021Z,19.03
2017-11-07T16:32:44.974Z,47.33
2017-11-07T16:35:11.738Z,72.93
2017-11-07T16:37:38.481Z,52.03
2017-11-07T16:40:05.198Z,22.20
2017-11-07T16:42:31.136Z,19.87
2017-11-07T16:44:57.185Z,17.90
2017-11-07T16:47:23.137Z,20.07
2017-11-07T16:49:49.077Z,17.50
2017-11-07T16:52:15.804Z,19.90
2017-11-07T16:54:41.854Z,20.40
2017-11-07T16:57:07.861Z,19.67
2017-11-07T16:59:33.836Z,19.67
2017-11-07T17:01:59.812Z,19.43
2017-11-07T17:04:25.747Z,19.87
2017-11-07T17:06:51.725Z,21.20
2017-11-07T17:09:17.717Z,20.90
2017-11-07T17:11:43.725Z,20.40
2017-11-07T17:14:09.736Z,21.83
2017-11-07T17:16:35.718Z,25.70
2017-11-07T17:19:01.681Z,19.37
2017-11-07T17:21:27.681Z,18.80
2017-11-07T17:23:54.361Z,18.93
2017-11-07T17:26:20.342Z,21.40
2017-11-07T17:28:46.289Z,22.90
2017-11-07T17:31:13.043Z,22.93
2017-11-07T17:33:39.749Z,23.17
2017-11-07T17:36:05.729Z,20.03
2017-11-07T17:38:32.481Z,20.50
2017-11-07T17:40:58.444Z,20.83
2017-11-07T17:43:24.393Z,22.03
2017-11-07T17:45:50.381Z,19.30
2017-11-07T17:48:16.328Z,20.97
2017-11-07T17:50:43.028Z,23.67
2017-11-07T17:53:09.014Z,25.67
2017-11-07T17:55:35.713Z,28.37
2017-11-07T17:58:01.717Z,25.60
2017-11-07T18:00:28.406Z,25.93
2017-11-07T18:02:54.365Z,22.93
2017-11-07T18:05:20.388Z,22.40
2017-11-07T18:07:46.353Z,21.73
2017-11-07T18:10:12.314Z,21.97
2017-11-07T18:12:39.100Z,23.67
2017-11-07T18:15:05.042Z,26.00
2017-11-07T18:17:31.017Z,21.90
2017-11-07T18:19:56.956Z,24.77
2017-11-07T18:22:22.936Z,23.67
2017-11-07T18:24:48.876Z,26.00
2017-11-07T18:27:14.853Z,25.10
2017-11-07T18:29:40.938Z,22.97
2017-11-07T18:32:06.886Z,21.93
2017-11-07T18:34:32.830Z,24.80
2017-11-07T18:36:58.829Z,31.57
2017-11-07T18:39:24.928Z,30.77
2017-11-07T18:41:50.919Z,26.10
2017-11-07T18:44:16.882Z,28.43
2017-11-07T18:46:43.698Z,26.73
2017-11-07T18:49:09.777Z,29.50
2017-11-07T18:51:35.766Z,28.50
2017-11-07T18:54:02.510Z,27.27
2017-11-07T18:56:29.242Z,27.10
2017-11-07T18:58:55.593Z,30.10
2017-11-07T19:01:21.567Z,25.33
2017-11-07T19:03:47.574Z,30.50
2017-11-07T19:06:13.571Z,25.03
2017-11-07T19:08:39.984Z,25.70
2017-11-07T19:11:06.696Z,32.33
2017-11-07T19:13:32.631Z,28.70
2017-11-07T19:15:58.761Z,26.63
2017-11-07T19:18:24.721Z,30.63
2017-11-07T19:20:50.852Z,27.53
2017-11-07T19:23:16.801Z,29.43
2017-11-07T19:25:42.818Z,29.73
2017-11-07T19:28:08.817Z,33.50
2017-11-07T19:30:35.534Z,36.87
2017-11-07T19:33:01.482Z,35.00
2017-11-07T19:35:27.479Z,39.20
2017-11-07T19:37:53.426Z,38.30
2017-11-07T19:40:19.618Z,41.53
2017-11-07T19:42:45.588Z,41.00
2017-11-07T19:45:11.905Z,39.80
2017-11-07T19:47:38.309Z,43.73
2017-11-07T19:50:04.290Z,44.83
2017-11-07T19:52:30.381Z,45.17
2017-11-07T19:54:56.337Z,50.00
2017-11-07T19:57:22.336Z,44.03
2017-11-07T19:59:48.464Z,43.17
2017-11-07T20:02:14.447Z,42.97
2017-11-07T20:04:40.677Z,42.80
2017-11-07T20:07:06.673Z,44.90
2017-11-07T20:09:32.610Z,38.73
2017-11-07T20:11:58.811Z,43.20
2017-11-07T20:14:24.781Z,41.37
2017-11-07T20:16:50.761Z,37.73
2017-11-07T20:19:16.709Z,42.80
2017-11-07T20:21:42.751Z,41.70
2017-11-07T20:24:08.731Z,37.23
2017-11-07T20:26:34.681Z,43.93
2017-11-07T20:29:00.673Z,41.87
2017-11-07T20:31:27.353Z,40.50
2017-11-07T20:33:53.334Z,44.13
2017-11-07T20:36:19.300Z,46.07
2017-11-07T20:38:46.026Z,49.57
2017-11-07T20:41:12.081Z,44.83
2017-11-07T20:43:38.150Z,48.43
2017-11-07T20:46:04.102Z,46.50
2017-11-07T20:48:30.074Z,48.47
2017-11-07T20:50:56.021Z,49.13
2017-11-07T20:53:22.006Z,47.60
2017-11-07T20:55:47.950Z,52.07
2017-11-07T20:58:13.946Z,47.63
2017-11-07T21:00:40.672Z,54.20
2017-11-07T21:03:06.652Z,54.17
2017-11-07T21:05:32.593Z,45.33
2017-11-07T21:07:58.538Z,52.07
2017-11-07T21:10:24.508Z,47.20
2017-11-07T21:12:50.444Z,49.47
2017-11-07T21:15:16.421Z,46.53
2017-11-07T21:17:42.415Z,44.23
2017-11-07T21:20:09.177Z,55.67
2017-11-07T21:22:35.154Z,49.10
2017-11-07T21:25:01.097Z,60.03
2017-11-07T21:27:27.073Z,51.47
2017-11-07T21:29:53.018Z,47.60
2017-11-07T21:32:19.003Z,44.97
2017-11-07T21:34:45.792Z,50.23
2017-11-07T21:37:12.695Z,51.80
2017-11-07T21:39:39.433Z,52.43
2017-11-07T21:42:06.117Z,47.60
2017-11-07T21:44:32.117Z,54.17
2017-11-07T21:46:58.057Z,52.37
2017-11-07T21:49:24.745Z,50.50
2017-11-07T21:51:50.729Z,55.53
2017-11-07T21:54:16.685Z,45.30
2017-11-07T21:56:43.444Z,53.70
2017-11-07T21:59:10.200Z,53.67
2017-11-07T22:01:36.885Z,56.70
2017-11-07T22:04:02.820Z,49.43
2017-11-07T22:06:28.798Z,60.47
2017-11-07T22:08:54.741Z,70.77
2017-11-07T22:11:20.686Z,55.10
2017-11-07T22:13:47.422Z,68.10
2017-11-07T22:16:13.430Z,65.87
2017-11-07T22:18:39.461Z,66.33
2017-11-07T22:21:05.445Z,54.40
2017-11-07T22:23:38.417Z,57.00
2017-11-07T22:26:04.364Z,49.00
2017-11-07T22:28:30.353Z,53.17
2017-11-07T22:30:56.329Z,55.60
2017-11-07T22:33:23.793Z,52.80
2017-11-07T22:35:49.729Z,56.93
2017-11-07T22:38:15.675Z,59.40
2017-11-07T22:40:41.681Z,56.33
2017-11-07T22:43:07.626Z,58.70
2017-11-07T22:45:33.605Z,49.07
2017-11-07T22:48:00.307Z,58.40
2017-11-07T22:50:26.293Z,51.63
2017-11-07T22:52:52.985Z,55.80
2017-11-07T22:55:18.924Z,102.47
2017-11-07T22:57:45.645Z,100.60
2017-11-07T23:00:12.372Z,89.27
2017-11-07T23:02:38.360Z,65.60
2017-11-07T23:05:06.195Z,61.33
2017-11-07T23:07:32.925Z,57.80
2017-11-07T23:09:58.874Z,49.70
2017-11-07T23:12:26.314Z,51.23
2017-11-07T23:14:52.288Z,52.73
2017-11-07T23:17:18.237Z,53.50
2017-11-07T23:19:44.968Z,53.77
2017-11-07T23:22:10.992Z,48.07
2017-11-07T23:24:36.960Z,56.60
2017-11-07T23:27:03.658Z,49.37
2017-11-07T23:29:29.658Z,49.90
2017-11-07T23:31:56.381Z,52.07
2017-11-07T23:34:22.321Z,51.93
2017-11-07T23:36:48.308Z,51.73
2017-11-07T23:39:14.276Z,47.87
2017-11-07T23:41:40.256Z,48.17
2017-11-07T23:44:06.238Z,51.27
2017-11-07T23:46:32.224Z,50.57
2017-11-07T23:48:58.923Z,56.07
2017-11-07T23:51:24.911Z,54.63
2017-11-07T23:53:51.601Z,52.13
2017-11-07T23:56:17.536Z,50.97
2017-11-07T23:58:43.554Z,55.23
